Time;durP1;ratioP1;P1;durP2;ratioP2;P2;SDS_P1;SDS_P2;PMS_P1;PMS_P2;Temp;Humidity;BMP_temperature;BMP_pressure;BME280_temperature;BME280_humidity;BME280_pressure;Samples;Min_cycle;Max_cycle;Signal;HPM_P1;HPM_P2
2022/09/17 00:01:28;;;;;;;;;;;13.90;61.50;;;9.52;88.81;95247.72;4990853;28;20363;-49
2022/09/17 00:03:59;;;;;;;;;;;13.90;61.50;;;9.51;88.80;95241.63;4979447;28;19925;-51
2022/09/17 00:06:25;;;;;;;;;;;13.90;61.60;;;9.50;88.69;95245.34;4990946;28;20366;-48
2022/09/17 00:08:55;;;;;;;;;;;13.90;61.60;;;9.48;89.45;95245.59;4975009;28;20359;-48
2022/09/17 00:11:25;;;;;;;;;;;13.90;61.60;;;9.48;89.25;95248.25;4998661;28;20319;-47
2022/09/17 00:13:53;;;;;;;;;;;13.90;61.70;;;9.45;89.36;95238.16;4973537;28;19909;-47
2022/09/17 00:16:45;;;;;;;;;;;13.90;61.70;;;9.47;89.47;95243.22;4958102;28;19917;-49
2022/09/17 00:19:22;;;;;;;;;;;13.90;61.80;;;9.44;88.88;95244.56;4957744;28;19998;-47
2022/09/17 00:21:51;;;;;;;;;;;13.90;61.80;;;9.41;89.38;95250.41;4983540;28;19913;-48
2022/09/17 00:24:19;;;;;;;;;;;13.90;61.80;;;9.38;89.22;95240.28;4976851;28;20367;-47
2022/09/17 00:26:49;;;;;;;;;;;13.90;61.80;;;9.35;89.05;95243.47;5009523;28;19909;-48
2022/09/17 00:29:15;;;;;;;;;;;13.80;61.80;;;9.36;88.78;95242.41;5009521;28;19948;-48
2022/09/17 00:31:42;;;;;;;;;;;13.80;61.80;;;9.38;89.21;95242.94;4996959;28;19913;-48
2022/09/17 00:34:11;;;;;;;;;;;13.80;61.90;;;9.38;89.44;95236.84;4992023;28;19909;-50
2022/09/17 00:36:42;;;;;;;;;;;13.80;62.00;;;9.40;89.72;95234.69;4979852;28;20468;-48
2022/09/17 00:39:11;;;;;;;;;;;13.80;62.00;;;9.37;89.39;95245.84;4971168;28;20312;-47
2022/09/17 00:41:38;;;;;;;;;;;13.80;62.00;;;9.34;89.16;95236.56;4985708;28;19913;-48
2022/09/17 00:44:43;;;;;;;;;;;13.80;62.10;;;9.32;89.72;95245.88;4987759;28;19913;-48
2022/09/17 00:47:33;;;;;;;;;;;13.80;62.10;;;9.29;89.94;95257.03;4973436;28;19909;-52
2022/09/17 00:50:25;;;;;;;;;;;13.80;62.20;;;9.29;90.55;95260.47;4992367;28;20299;-47
2022/09/17 00:53:09;;;;;;;;;;;13.70;62.20;;;9.30;90.76;95258.63;4985380;28;20069;-47
2022/09/17 00:55:44;;;;;;;;;;;13.70;62.30;;;9.29;90.83;95268.47;4973480;28;19909;-51
2022/09/17 00:58:21;;;;;;;;;;;13.70;62.40;;;9.28;91.30;95269.53;4993469;28;19913;-48
2022/09/17 01:00:51;;;;;;;;;;;13.70;62.40;;;9.26;91.45;95263.66;4976477;28;19924;-47
2022/09/17 01:03:17;;;;;;;;;;;13.70;62.40;;;9.26;91.52;95277.75;4987173;28;20273;-46
2022/09/17 01:06:44;;;;;;;;;;;13.70;62.50;;;9.22;91.45;95270.56;4979959;28;19944;-47
2022/09/17 01:09:53;;;;;;;;;;;13.70;62.50;;;9.20;91.55;95268.16;4971210;28;19962;-48
2022/09/17 01:12:37;;;;;;;;;;;13.60;62.50;;;9.18;91.47;95266.81;4993799;28;19913;-47
2022/09/17 01:15:48;;;;;;;;;;;13.60;62.60;;;9.13;91.06;95278.25;5008975;28;19913;-48
2022/09/17 01:19:01;;;;;;;;;;;13.60;62.70;;;9.09;91.20;95271.88;5013257;28;19916;-49
2022/09/17 01:21:50;;;;;;;;;;;13.60;62.70;;;9.04;90.33;95277.97;4990973;28;20439;-47
2022/09/17 01:24:59;;;;;;;;;;;13.50;62.80;;;9.04;90.93;95279.81;5013038;28;19984;-48
2022/09/17 01:28:37;;;;;;;;;;;13.50;62.90;;;8.97;90.45;95280.06;4931333;28;19917;-47
2022/09/17 01:31:46;;;;;;;;;;;13.50;62.90;;;8.96;90.50;95281.16;4936307;28;20000;-48
2022/09/17 01:34:48;;;;;;;;;;;13.40;62.80;;;8.93;90.90;95281.66;5011775;28;19909;-52
2022/09/17 01:37:18;;;;;;;;;;;13.40;62.90;;;8.91;90.77;95278.47;4988545;28;20368;-48
2022/09/17 01:40:32;;;;;;;;;;;13.40;62.90;;;8.88;91.31;95278.19;4980563;28;19916;-48
2022/09/17 01:43:09;;;;;;;;;;;13.40;62.90;;;8.83;91.46;95278.97;4961029;28;19917;-49
2022/09/17 01:45:55;;;;;;;;;;;13.30;63.70;;;8.83;91.62;95275.50;5011710;28;19920;-47
2022/09/17 01:48:32;;;;;;;;;;;13.30;63.00;;;8.84;91.46;95285.88;4994913;28;19947;-46
2022/09/17 01:51:23;;;;;;;;;;;13.30;63.00;;;8.85;91.80;95278.72;4992732;28;19956;-47
2022/09/17 01:54:04;;;;;;;;;;;13.30;63.00;;;8.81;91.65;95281.09;4979036;28;20372;-48
2022/09/17 01:56:42;;;;;;;;;;;13.30;63.10;;;8.81;91.60;95294.38;4985306;28;19913;-47
2022/09/17 02:00:02;;;;;;;;;;;13.30;63.10;;;8.79;91.87;95297.28;4979103;28;19913;-46
2022/09/17 02:02:57;;;;;;;;;;;13.30;63.20;;;8.78;91.32;95294.88;4924522;28;19917;-46
2022/09/17 02:05:23;;;;;;;;;;;13.30;63.20;;;8.76;91.22;95289.03;4994410;28;19921;-46
2022/09/17 02:08:10;;;;;;;;;;;13.20;63.20;;;8.75;91.25;95284.78;4994626;28;19916;-46
2022/09/17 02:10:48;;;;;;;;;;;13.20;63.20;;;8.73;91.04;95295.66;5011163;28;19967;-46
2022/09/17 02:13:38;;;;;;;;;;;13.20;63.20;;;8.62;90.48;95291.38;4982593;28;20180;-46
2022/09/17 02:16:26;;;;;;;;;;;13.10;63.10;;;8.61;90.88;95302.25;4966439;28;19916;-45
2022/09/17 02:19:22;;;;;;;;;;;13.10;63.10;;;8.53;91.11;95298.22;4976047;28;19909;-46
2022/09/17 02:22:29;;;;;;;;;;;13.00;63.10;;;8.44;91.17;95291.81;4987665;28;20438;-46
2022/09/17 02:25:36;;;;;;;;;;;13.00;63.20;;;8.33;91.63;95291.72;4988217;28;19996;-46
2022/09/17 02:28:27;;;;;;;;;;;12.90;63.20;;;8.27;91.97;95294.59;4989299;28;20277;-46
2022/09/17 02:30:55;;;;;;;;;;;12.80;63.30;;;8.20;91.80;95292.16;4966843;28;19910;-46
2022/09/17 02:33:29;;;;;;;;;;;12.70;63.30;;;8.16;91.98;95293.75;5010538;28;19909;-48
2022/09/17 02:35:54;;;;;;;;;;;12.70;63.30;;;8.13;91.42;95293.47;5011823;28;19913;-46
2022/09/17 02:38:32;;;;;;;;;;;12.60;63.30;;;8.06;91.30;95296.34;4986872;28;20292;-45
2022/09/17 02:41:29;;;;;;;;;;;12.50;63.30;;;8.00;91.74;95284.88;4998531;28;19963;-45
2022/09/17 02:44:19;;;;;;;;;;;12.50;63.50;;;7.94;91.76;95287.75;4966989;28;19917;-46
2022/09/17 02:47:22;;;;;;;;;;;12.50;63.60;;;7.90;91.89;95290.13;4982667;28;20328;-46
2022/09/17 02:50:13;;;;;;;;;;;12.40;63.60;;;7.84;92.71;95286.63;4954556;28;19917;-46
2022/09/17 02:53:04;;;;;;;;;;;12.40;63.70;;;7.82;93.18;95296.69;4987396;28;19909;-48
2022/09/17 02:56:09;;;;;;;;;;;12.40;63.70;;;7.79;93.34;95294.53;4989701;28;19909;-45
2022/09/17 02:59:24;;;;;;;;;;;12.40;63.80;;;7.76;94.89;95300.34;4989629;28;19963;-46
2022/09/17 03:02:23;;;;;;;;;;;12.30;63.90;;;7.72;95.08;95299.25;4902489;29;19966;-46
2022/09/17 03:04:50;;;;;;;;;;;12.20;63.80;;;7.68;95.08;95300.84;4922824;29;19925;-48
2022/09/17 03:07:21;;;;;;;;;;;12.20;63.90;;;7.63;95.37;95295.47;4913376;29;19910;-46
2022/09/17 03:09:47;;;;;;;;;;;12.20;64.00;;;7.60;95.82;95304.72;4912039;29;20370;-49
2022/09/17 03:12:18;;;;;;;;;;;12.10;64.00;;;7.57;95.74;95304.44;4912601;29;19910;-45
2022/09/17 03:14:46;;;;;;;;;;;12.00;64.00;;;7.53;95.79;95308.66;4913349;28;19946;-46
2022/09/17 03:17:13;;;;;;;;;;;12.00;64.00;;;7.48;95.38;95304.09;4931161;29;19910;-46
2022/09/17 03:19:39;;;;;;;;;;;12.00;64.10;;;7.41;95.83;95306.16;4924494;29;19916;-47
2022/09/17 03:22:05;;;;;;;;;;;11.90;64.10;;;7.34;95.60;95302.91;4918931;29;19914;-46
2022/09/17 03:24:42;;;;;;;;;;;11.90;64.20;;;7.30;95.93;95312.38;4918430;29;19953;-48
2022/09/17 03:27:08;;;;;;;;;;;11.80;64.20;;;7.27;96.13;95305.75;4915288;29;20344;-46
2022/09/17 03:29:34;;;;;;;;;;;11.80;64.40;;;7.25;95.96;95312.34;4928964;29;19911;-46
2022/09/17 03:32:04;;;;;;;;;;;11.80;64.50;;;7.25;96.03;95313.16;4937907;28;19931;-48
2022/09/17 03:34:39;;;;;;;;;;;11.80;64.60;;;7.26;95.88;95314.75;5001952;28;19913;-46
2022/09/17 03:37:06;;;;;;;;;;;11.80;64.70;;;7.29;96.08;95311.59;4983858;28;26820;-45
2022/09/17 03:39:32;;;;;;;;;;;11.80;64.70;;;7.33;96.11;95318.00;4992055;28;20324;-46
2022/09/17 03:42:01;;;;;;;;;;;11.80;64.80;;;7.36;95.93;95319.34;4983093;28;19913;-46
2022/09/17 03:44:30;;;;;;;;;;;11.90;64.90;;;7.36;95.68;95314.88;4995071;28;19920;-46
2022/09/17 03:47:08;;;;;;;;;;;11.90;64.90;;;7.36;95.40;95314.03;4992183;28;19916;-46
2022/09/17 03:49:36;;;;;;;;;;;11.90;64.80;;;7.33;95.41;95311.88;4961037;28;20019;-46
2022/09/17 03:52:04;;;;;;;;;;;11.80;64.70;;;7.29;95.67;95324.03;4983103;28;19929;-46
2022/09/17 03:54:42;;;;;;;;;;;11.80;64.70;;;7.29;95.36;95324.84;5010848;28;19963;-46
2022/09/17 03:57:13;;;;;;;;;;;11.80;64.70;;;7.27;95.64;95320.84;5009331;28;19962;-46
2022/09/17 03:59:39;;;;;;;;;;;11.80;64.80;;;7.26;95.10;95329.84;4992791;28;20008;-46
2022/09/17 04:02:04;;;;;;;;;;;11.80;64.90;;;7.23;95.63;95333.00;4989520;28;20047;-48
2022/09/17 04:04:36;;;;;;;;;;;11.80;64.80;;;7.19;95.76;95338.78;5005832;28;19917;-46
2022/09/17 04:07:08;;;;;;;;;;;11.70;64.80;;;7.17;95.50;95337.44;4980083;28;19920;-46
2022/09/17 04:09:34;;;;;;;;;;;11.70;64.80;;;7.13;95.80;95350.38;4990802;28;19916;-46
2022/09/17 04:12:03;;;;;;;;;;;11.70;64.80;;;7.09;96.10;95340.53;4963994;28;20157;-45
2022/09/17 04:14:32;;;;;;;;;;;11.60;64.70;;;7.05;96.23;95340.22;5001349;28;19956;-46
2022/09/17 04:17:01;;;;;;;;;;;11.60;64.80;;;7.01;96.72;95344.41;4992281;28;19917;-46
2022/09/17 04:19:29;;;;;;;;;;;11.60;64.90;;;6.98;96.33;95344.91;4993328;28;19978;-46
2022/09/17 04:21:55;;;;;;;;;;;11.50;64.90;;;6.94;96.73;95344.59;5009274;28;19909;-46
2022/09/17 04:24:25;;;;;;;;;;;11.50;64.90;;;6.93;96.73;95352.81;4947848;28;20331;-46
2022/09/17 04:26:50;;;;;;;;;;;11.50;65.00;;;6.94;96.94;95349.88;4991259;28;19958;-47
2022/09/17 04:29:16;;;;;;;;;;;11.50;65.20;;;6.99;96.75;95351.00;4991476;28;20286;-47
2022/09/17 04:31:45;;;;;;;;;;;11.50;65.20;;;7.01;96.74;95349.69;4998443;28;19909;-46
2022/09/17 04:34:17;;;;;;;;;;;11.50;65.30;;;7.01;96.50;95341.75;5005649;28;20000;-46
2022/09/17 04:36:45;;;;;;;;;;;11.50;65.30;;;7.02;96.68;95351.31;4982021;28;19920;-48
2022/09/17 04:39:20;;;;;;;;;;;11.50;65.40;;;7.03;96.63;95355.56;4994733;28;19974;-45
2022/09/17 04:41:49;;;;;;;;;;;11.50;65.40;;;7.04;96.50;95349.22;5014088;28;20299;-46
2022/09/17 04:44:26;;;;;;;;;;;11.60;65.50;;;7.04;96.39;95354.50;4996387;28;19913;-46
2022/09/17 04:46:52;;;;;;;;;;;11.60;65.50;;;7.05;96.15;95358.78;4982799;28;19910;-46
2022/09/17 04:49:18;;;;;;;;;;;11.60;65.60;;;7.04;96.08;95356.34;4989693;28;20399;-46
2022/09/17 04:51:43;;;;;;;;;;;11.60;65.40;;;7.04;96.02;95359.81;4970873;28;19909;-45
2022/09/17 04:54:09;;;;;;;;;;;11.60;65.40;;;6.99;95.94;95359.75;4991954;28;19995;-46
2022/09/17 04:56:35;;;;;;;;;;;11.50;65.30;;;6.94;95.76;95357.84;4992428;28;20373;-46
2022/09/17 04:59:09;;;;;;;;;;;11.50;65.30;;;6.88;96.21;95352.72;5012844;28;20003;-45
2022/09/17 05:01:35;;;;;;;;;;;11.40;65.20;;;6.83;96.07;95358.78;5013522;28;19909;-46
2022/09/17 05:04:10;;;;;;;;;;;11.40;65.20;;;6.78;95.81;95366.66;5012212;28;20303;-49
2022/09/17 05:06:45;;;;;;;;;;;11.40;65.20;;;6.70;95.37;95378.44;4990842;28;19920;-50
2022/09/17 05:09:14;;;;;;;;;;;11.30;65.90;;;6.62;96.22;95378.88;5002528;28;19909;-47
2022/09/17 05:11:43;;;;;;;;;;;11.30;65.20;;;6.58;96.61;95383.06;4984043;28;19935;-45
2022/09/17 05:14:08;;;;;;;;;;;11.20;65.20;;;6.56;96.89;95387.00;5013365;28;19949;-47
2022/09/17 05:16:34;;;;;;;;;;;11.20;65.30;;;6.53;97.36;95387.47;5003798;28;20431;-46
2022/09/17 05:19:04;;;;;;;;;;;11.10;65.30;;;6.53;97.68;95387.47;4990959;28;20299;-47
2022/09/17 05:21:29;;;;;;;;;;;11.10;65.50;;;6.53;98.27;95390.13;5012601;28;19915;-46
2022/09/17 05:24:10;;;;;;;;;;;11.10;65.50;;;6.58;98.27;95390.19;4966399;28;19913;-45
2022/09/17 05:26:35;;;;;;;;;;;11.10;65.60;;;6.59;98.09;95389.16;4994928;28;19916;-49
2022/09/17 05:29:01;;;;;;;;;;;11.20;65.70;;;6.61;97.83;95393.16;5012621;28;20260;-45
2022/09/17 05:31:39;;;;;;;;;;;11.20;65.80;;;6.64;97.79;95395.31;4985232;28;20016;-48
2022/09/17 05:34:11;;;;;;;;;;;11.20;65.90;;;6.67;97.57;95394.00;4992509;28;19940;-46
2022/09/17 05:36:40;;;;;;;;;;;11.30;66.00;;;6.71;97.36;95401.25;4999959;28;19917;-47
2022/09/17 05:39:05;;;;;;;;;;;11.30;66.00;;;6.76;96.78;95402.34;4979964;28;19909;-46
2022/09/17 05:41:33;;;;;;;;;;;11.40;66.00;;;6.82;96.63;95404.00;4999504;28;19910;-51
2022/09/17 05:44:02;;;;;;;;;;;11.40;66.00;;;6.86;96.40;95403.28;5000815;28;19944;-47
2022/09/17 05:46:27;;;;;;;;;;;11.50;66.00;;;6.92;95.63;95409.44;4994033;28;19909;-46
2022/09/17 05:48:57;;;;;;;;;;;11.50;66.00;;;7.00;95.69;95416.16;4979183;28;19916;-46
2022/09/17 05:51:23;;;;;;;;;;;11.60;66.00;;;7.08;95.50;95419.19;5012285;28;19909;-46
2022/09/17 05:53:49;;;;;;;;;;;11.70;66.00;;;7.14;95.29;95418.19;4995194;28;19963;-47
2022/09/17 05:56:15;;;;;;;;;;;11.80;66.10;;;7.23;94.94;95421.22;4910870;28;21154;-46
2022/09/17 05:58:41;;;;;;;;;;;11.80;66.00;;;7.26;94.36;95423.38;4981704;28;19919;-46
2022/09/17 06:01:06;;;;;;;;;;;11.90;65.90;;;7.32;94.17;95424.22;4992079;28;20652;-46
2022/09/17 06:03:32;;;;;;;;;;;12.00;65.90;;;7.38;93.11;95433.84;4992480;28;19917;-46
2022/09/17 06:05:59;;;;;;;;;;;12.10;65.90;;;7.50;93.50;95437.16;4985554;28;19914;-46
2022/09/17 06:08:28;;;;;;;;;;;12.20;65.70;;;7.60;92.80;95436.47;4975725;28;20055;-47
2022/09/17 06:10:57;;;;;;;;;;;12.40;65.80;;;7.75;92.46;95441.16;4990569;28;19992;-47
2022/09/17 06:13:29;;;;;;;;;;;12.50;65.60;;;7.87;91.80;95447.09;4958339;28;19956;-46
2022/09/17 06:15:55;;;;;;;;;;;12.60;65.50;;;7.99;91.07;95441.63;4973320;28;19963;-46
2022/09/17 06:18:21;;;;;;;;;;;12.80;65.40;;;8.03;89.74;95445.41;4973721;28;19910;-46
2022/09/17 06:21:02;;;;;;;;;;;12.90;65.30;;;8.08;89.31;95443.59;4974194;28;20012;-49
2022/09/17 06:23:44;;;;;;;;;;;13.00;65.10;;;8.16;88.85;95442.31;4992692;28;19913;-46
2022/09/17 06:26:11;;;;;;;;;;;13.10;64.90;;;8.24;88.91;95447.19;4992486;28;19956;-46
2022/09/17 06:28:43;;;;;;;;;;;13.20;64.70;;;8.28;87.09;95450.91;4990908;28;20066;-46
2022/09/17 06:31:12;;;;;;;;;;;13.40;64.50;;;8.39;86.83;95443.06;4992486;28;19949;-48
2022/09/17 06:33:47;;;;;;;;;;;13.50;64.30;;;8.51;87.28;95449.00;4990610;28;19975;-47
2022/09/17 06:36:18;;;;;;;;;;;13.60;64.10;;;8.53;86.26;95450.34;4992412;28;20284;-49
2022/09/17 06:38:44;;;;;;;;;;;13.70;63.90;;;8.53;85.75;95447.69;4959322;28;20380;-48
2022/09/17 06:41:13;;;;;;;;;;;13.80;63.80;;;8.54;86.44;95451.16;4987276;28;19941;-46
2022/09/17 06:43:39;;;;;;;;;;;13.80;64.40;;;8.57;87.14;95454.09;4979528;28;19909;-46
2022/09/17 06:46:07;;;;;;;;;;;13.80;63.50;;;8.55;87.11;95466.00;4983764;28;20295;-48
2022/09/17 06:48:35;;;;;;;;;;;13.70;63.30;;;8.57;87.71;95469.22;4991699;28;19913;-48
2022/09/17 06:51:05;;;;;;;;;;;13.60;63.30;;;8.51;87.35;95467.59;4991610;28;19910;-46
2022/09/17 06:53:31;;;;;;;;;;;13.60;63.40;;;8.53;88.60;95471.59;4983263;28;19916;-46
2022/09/17 06:55:59;;;;;;;;;;;13.50;63.40;;;8.50;88.08;95476.59;4955375;28;19967;-50
2022/09/17 06:58:29;;;;;;;;;;;13.40;63.40;;;8.45;88.70;95481.88;4973013;28;19914;-51
2022/09/17 07:01:02;;;;;;;;;;;13.40;63.50;;;8.40;89.73;95479.97;4974881;28;19959;-51
2022/09/17 07:03:30;;;;;;;;;;;13.30;63.50;;;8.35;89.96;95479.91;4987769;28;19921;-46
2022/09/17 07:05:59;;;;;;;;;;;13.20;63.60;;;8.29;89.89;95486.22;4976773;28;19958;-47
2022/09/17 07:08:25;;;;;;;;;;;13.10;63.70;;;8.23;91.04;95492.53;4974510;28;19910;-46
2022/09/17 07:10:54;;;;;;;;;;;13.00;63.70;;;8.19;91.56;95492.22;4984147;28;19917;-47
2022/09/17 07:13:20;;;;;;;;;;;12.90;63.80;;;8.12;91.38;95491.66;4974084;28;19920;-46
2022/09/17 07:16:01;;;;;;;;;;;12.90;64.10;;;8.13;91.72;95497.75;4975145;28;20269;-46
2022/09/17 07:18:27;;;;;;;;;;;12.80;64.10;;;8.06;91.76;95498.75;4952852;28;19914;-47
2022/09/17 07:20:59;;;;;;;;;;;12.80;64.20;;;8.10;91.63;95493.72;4973848;28;19909;-49
2022/09/17 07:23:32;;;;;;;;;;;12.80;64.30;;;8.11;92.08;95498.78;4974431;28;20003;-46
2022/09/17 07:26:02;;;;;;;;;;;12.80;64.30;;;8.20;92.55;95504.44;4991560;28;19913;-46
2022/09/17 07:28:31;;;;;;;;;;;12.90;64.30;;;8.28;92.33;95505.84;4987588;28;20388;-46
2022/09/17 07:30:57;;;;;;;;;;;13.00;64.30;;;8.27;91.52;95510.38;4971242;28;19945;-46
2022/09/17 07:33:28;;;;;;;;;;;13.10;64.30;;;8.35;91.10;95514.41;4973210;28;21116;-48
2022/09/17 07:36:06;;;;;;;;;;;13.30;64.30;;;8.45;91.16;95503.91;4970447;28;19963;-49
2022/09/17 07:38:35;;;;;;;;;;;13.30;64.10;;;8.52;90.09;95501.84;4978875;28;20690;-47
2022/09/17 07:41:30;;;;;;;;;;;13.40;64.10;;;8.64;89.78;95512.28;4971129;28;19909;-50
2022/09/17 07:43:56;;;;;;;;;;;13.70;64.00;;;8.78;89.22;95512.66;4989570;28;19920;-47
2022/09/17 07:46:22;;;;;;;;;;;13.90;63.80;;;8.94;90.54;95513.56;4985015;28;20381;-46
2022/09/17 07:48:51;;;;;;;;;;;14.10;63.60;;;9.06;88.33;95513.38;4972036;28;19913;-51
2022/09/17 07:51:35;;;;;;;;;;;14.30;63.50;;;9.22;88.21;95515.88;4976267;28;19909;-49
2022/09/17 07:54:01;;;;;;;;;;;14.50;63.30;;;9.29;86.11;95509.53;4977446;28;19909;-50
2022/09/17 07:56:29;;;;;;;;;;;14.60;63.00;;;9.32;86.72;95517.78;4971755;28;19936;-46
2022/09/17 07:59:08;;;;;;;;;;;14.70;62.90;;;9.37;87.04;95519.66;5004472;28;19996;-49
2022/09/17 08:01:37;;;;;;;;;;;14.60;62.80;;;9.29;86.45;95520.16;4990079;28;19958;-49
2022/09/17 08:04:04;;;;;;;;;;;14.50;62.80;;;9.19;85.95;95520.91;4989019;28;19941;-50
2022/09/17 08:06:39;;;;;;;;;;;14.40;62.80;;;9.16;86.19;95518.78;4979433;28;19964;-47
2022/09/17 08:09:08;;;;;;;;;;;14.40;63.50;;;9.10;86.63;95525.91;4983355;28;19940;-49
2022/09/17 08:11:34;;;;;;;;;;;14.40;62.60;;;9.08;86.00;95528.00;4981479;28;20357;-50
2022/09/17 08:14:02;;;;;;;;;;;14.40;62.50;;;9.11;85.09;95526.69;4981716;28;20005;-48
2022/09/17 08:16:30;;;;;;;;;;;14.50;62.40;;;9.21;85.93;95529.41;4989289;28;19913;-46
2022/09/17 08:18:57;;;;;;;;;;;14.70;62.30;;;9.35;85.03;95529.78;4986817;28;19917;-46
2022/09/17 08:21:23;;;;;;;;;;;15.00;62.10;;;9.44;83.16;95522.91;4951060;28;19909;-46
2022/09/17 08:23:49;;;;;;;;;;;15.30;61.70;;;9.66;83.98;95525.41;4982702;28;19952;-47
2022/09/17 08:26:21;;;;;;;;;;;15.60;61.30;;;10.00;81.74;95525.78;4986424;28;19964;-47
2022/09/17 08:29:07;;;;;;;;;;;15.90;61.00;;;10.68;78.37;95530.19;4966612;28;19960;-50
2022/09/17 08:31:33;;;;;;;;;;;16.60;60.70;;;10.94;79.70;95534.47;4981116;28;19917;-47
2022/09/17 08:34:00;;;;;;;;;;;17.00;60.50;;;10.94;78.68;95539.78;4980015;28;19910;-47
2022/09/17 08:36:28;;;;;;;;;;;17.00;60.30;;;10.82;78.78;95536.59;4988772;28;19975;-47
2022/09/17 08:38:55;;;;;;;;;;;16.90;60.00;;;10.70;77.45;95542.19;4988877;28;20406;-47
2022/09/17 08:41:39;;;;;;;;;;;16.80;59.80;;;10.57;79.49;95546.16;4987548;28;19918;-48
2022/09/17 08:44:46;;;;;;;;;;;16.70;59.70;;;10.48;80.06;95549.63;4984019;28;19913;-48
2022/09/17 08:47:35;;;;;;;;;;;16.50;59.60;;;10.27;81.92;95533.59;4949659;28;19930;-47
2022/09/17 08:50:11;;;;;;;;;;;16.30;59.40;;;10.22;81.24;95541.56;4978795;28;20289;-48
2022/09/17 08:53:03;;;;;;;;;;;16.10;59.50;;;10.16;80.89;95534.63;4971786;28;19913;-49
2022/09/17 08:55:52;;;;;;;;;;;15.90;59.70;;;9.93;82.67;95534.03;4979100;28;19914;-46
2022/09/17 08:58:42;;;;;;;;;;;15.90;59.60;;;10.28;83.79;95545.03;4989002;28;20008;-47
2022/09/17 09:01:43;;;;;;;;;;;16.00;59.70;;;10.71;85.96;95541.09;4988545;28;19982;-46
2022/09/17 09:04:47;;;;;;;;;;;16.20;60.00;;;10.45;81.93;95544.81;4975100;28;20368;-46
2022/09/17 09:07:22;;;;;;;;;;;16.20;60.10;;;10.49;80.90;95541.34;4974013;28;19909;-49
2022/09/17 09:10:22;;;;;;;;;;;16.10;60.10;;;10.33;79.63;95540.53;4981605;28;20330;-50
2022/09/17 09:12:51;;;;;;;;;;;16.10;60.10;;;10.48;81.28;95546.94;4988579;28;19913;-47
2022/09/17 09:15:41;;;;;;;;;;;16.10;59.90;;;10.47;78.50;95540.84;4961360;28;19910;-49
2022/09/17 09:18:30;;;;;;;;;;;16.20;60.00;;;10.50;80.13;95542.97;4992940;28;19914;-46
2022/09/17 09:21:28;;;;;;;;;;;16.30;59.70;;;10.87;80.25;95545.38;4991938;28;19909;-46
2022/09/17 09:24:14;;;;;;;;;;;16.60;59.60;;;11.52;78.63;95544.75;4989079;28;19929;-46
2022/09/17 09:27:07;;;;;;;;;;;17.20;59.60;;;12.13;76.18;95546.44;4981471;28;19937;-50
2022/09/17 09:30:07;;;;;;;;;;;17.90;59.40;;;12.50;71.46;95537.91;4961792;28;19916;-48
2022/09/17 09:32:48;;;;;;;;;;;18.60;59.00;;;12.82;69.30;95540.13;4992562;28;19918;-47
2022/09/17 09:35:32;;;;;;;;;;;19.10;58.30;;;12.88;69.07;95544.34;4973056;28;19909;-49
2022/09/17 09:38:14;;;;;;;;;;;19.30;57.60;;;12.70;67.60;95542.34;4980551;28;19913;-48
2022/09/17 09:40:46;;;;;;;;;;;19.30;57.30;;;13.08;68.33;95539.91;4992361;28;19913;-50
2022/09/17 09:43:43;;;;;;;;;;;19.70;56.60;;;13.80;64.27;95527.41;4982963;28;19933;-47
2022/09/17 09:46:52;;;;;;;;;;;20.30;56.20;;;14.26;62.01;95537.56;4976637;28;19944;-48
2022/09/17 09:49:32;;;;;;;;;;;21.00;55.80;;;14.47;57.65;95539.94;4992477;28;20020;-47
2022/09/17 09:52:36;;;;;;;;;;;21.50;55.00;;;14.44;61.68;95543.19;4990195;28;20020;-50
2022/09/17 09:55:42;;;;;;;;;;;21.90;53.30;;;14.75;58.88;95538.22;4974431;28;19917;-47
2022/09/17 09:58:38;;;;;;;;;;;22.20;53.30;;;15.10;56.57;95542.19;4976312;28;20007;-47
2022/09/17 10:01:21;;;;;;;;;;;22.50;52.30;;;15.60;55.24;95533.56;4967701;28;20368;-50
2022/09/17 10:03:57;;;;;;;;;;;23.00;52.10;;;16.00;53.72;95525.84;4990743;28;20395;-50
2022/09/17 10:06:29;;;;;;;;;;;23.60;51.60;;;16.68;53.91;95532.97;4991004;28;19932;-47
2022/09/17 10:08:55;;;;;;;;;;;24.40;51.00;;;16.95;50.78;95528.59;4975895;28;19910;-47
2022/09/17 10:11:33;;;;;;;;;;;24.70;50.70;;;16.27;51.54;95539.25;4990283;28;19917;-46
2022/09/17 10:14:28;;;;;;;;;;;24.50;49.70;;;15.84;52.83;95536.09;4973030;28;20292;-47
2022/09/17 10:17:19;;;;;;;;;;;24.10;49.60;;;15.68;53.98;95536.38;4989574;28;20444;-47
2022/09/17 10:20:14;;;;;;;;;;;23.40;49.90;;;15.08;53.33;95544.41;4979249;28;19909;-47
2022/09/17 10:22:44;;;;;;;;;;;22.80;50.10;;;14.37;54.49;95540.88;4964844;28;19914;-51
2022/09/17 10:25:34;;;;;;;;;;;22.10;49.60;;;13.93;56.61;95539.31;4971992;28;20000;-51
2022/09/17 10:28:19;;;;;;;;;;;21.50;49.50;;;13.71;57.44;95547.84;4969870;28;19913;-47
2022/09/17 10:30:57;;;;;;;;;;;21.10;49.70;;;13.67;58.52;95544.16;4977251;28;19916;-46
2022/09/17 10:33:33;;;;;;;;;;;20.70;50.00;;;13.73;58.33;95536.88;4991476;28;20276;-46
2022/09/17 10:36:15;;;;;;;;;;;20.50;50.00;;;13.46;56.54;95548.13;4961138;28;19941;-46
2022/09/17 10:38:47;;;;;;;;;;;20.40;49.90;;;13.33;58.93;95545.03;4972078;28;20391;-52
2022/09/17 10:41:20;;;;;;;;;;;20.30;50.00;;;13.26;57.91;95541.13;4961306;28;20143;-47
2022/09/17 10:43:55;;;;;;;;;;;20.20;50.10;;;13.34;59.03;95548.50;4983029;28;20019;-46
2022/09/17 10:46:32;;;;;;;;;;;20.10;50.30;;;13.35;57.91;95542.06;4986164;28;19909;-49
2022/09/17 10:49:30;;;;;;;;;;;20.00;50.50;;;12.91;58.21;95543.78;4985153;28;19913;-49
2022/09/17 10:52:30;;;;;;;;;;;19.80;50.20;;;12.95;58.65;95544.03;4945568;28;19963;-47
2022/09/17 10:55:17;;;;;;;;;;;19.60;50.20;;;12.91;58.78;95540.28;4982171;28;19910;-46
2022/09/17 10:58:06;;;;;;;;;;;19.50;50.30;;;13.07;59.08;95547.13;4983328;28;20423;-47
2022/09/17 11:00:55;;;;;;;;;;;19.60;50.20;;;13.03;57.79;95534.59;4988589;28;19909;-46
2022/09/17 11:04:01;;;;;;;;;;;19.90;49.50;;;13.01;56.33;95539.44;4979931;28;20028;-46
2022/09/17 11:07:12;;;;;;;;;;;20.20;48.60;;;13.41;56.94;95541.75;4978212;28;19959;-46
2022/09/17 11:09:41;;;;;;;;;;;20.50;48.60;;;13.75;55.11;95540.84;4976315;28;20311;-46
2022/09/17 11:13:03;;;;;;;;;;;20.90;48.40;;;13.96;55.30;95530.69;4980172;28;19949;-47
2022/09/17 11:15:48;;;;;;;;;;;21.10;48.30;;;14.04;54.36;95543.47;4979230;28;19910;-48
2022/09/17 11:18:40;;;;;;;;;;;21.00;48.50;;;13.79;54.10;95536.53;4982978;28;20429;-47
2022/09/17 11:21:47;;;;;;;;;;;20.90;48.20;;;13.65;55.71;95546.31;4977902;28;19913;-46
2022/09/17 11:25:23;;;;;;;;;;;20.70;48.00;;;13.38;56.04;95552.19;4973851;28;19967;-45
2022/09/17 11:28:10;;;;;;;;;;;20.50;47.30;;;13.46;54.72;95543.56;4900797;29;20057;-48
2022/09/17 11:31:06;;;;;;;;;;;20.40;47.60;;;13.54;56.00;95548.31;4975683;28;19999;-46
2022/09/17 11:34:20;;;;;;;;;;;20.40;47.80;;;13.35;55.65;95539.38;4981375;28;20399;-45
2022/09/17 11:37:21;;;;;;;;;;;20.30;47.80;;;13.21;56.76;95547.25;4976200;28;19916;-45
2022/09/17 11:40:02;;;;;;;;;;;20.20;47.70;;;13.09;56.42;95536.94;4982533;28;20647;-47
2022/09/17 11:42:59;;;;;;;;;;;20.00;47.70;;;12.92;56.73;95525.88;4985306;28;19936;-46
2022/09/17 11:46:12;;;;;;;;;;;19.90;47.50;;;12.92;57.42;95529.34;4969440;28;19974;-45
2022/09/17 11:49:05;;;;;;;;;;;19.90;47.40;;;12.97;57.39;95525.81;4982315;28;19949;-46
2022/09/17 11:51:37;;;;;;;;;;;19.90;47.20;;;13.20;57.43;95527.75;4978712;28;20388;-46
2022/09/17 11:55:02;;;;;;;;;;;19.90;47.30;;;13.58;57.54;95525.25;4986546;28;20372;-46
2022/09/17 11:57:40;;;;;;;;;;;20.30;47.20;;;14.13;53.00;95519.50;4962259;28;20004;-47
2022/09/17 12:00:21;;;;;;;;;;;21.30;47.00;;;14.82;53.88;95530.59;4987753;28;19999;-49
2022/09/17 12:03:05;;;;;;;;;;;21.90;46.40;;;15.44;50.53;95525.78;4982873;28;20051;-47
2022/09/17 12:05:59;;;;;;;;;;;22.60;46.50;;;15.51;47.47;95525.38;4986178;28;19914;-50
2022/09/17 12:09:24;;;;;;;;;;;23.30;45.20;;;16.09;47.90;95524.03;4981472;28;19944;-45
2022/09/17 12:12:06;;;;;;;;;;;24.00;44.10;;;16.23;45.75;95521.31;4974828;28;19917;-47
2022/09/17 12:15:06;;;;;;;;;;;24.70;43.40;;;16.49;46.62;95516.19;4965334;28;21530;-46
2022/09/17 12:17:53;;;;;;;;;;;25.50;42.20;;;16.72;47.76;95519.69;4970756;28;19909;-46